DBBB/COO METAR and TAF weather

Enter ICAO airport designator
Station Type Date Time Source
DBBB METAR 2021/05/07 01:00 UTC NOAA

DBBB 070100Z 24009KT 9999 SCT012 28/25 Q1012 NOSIG


Station Type Date Time Source
DBBB Decoded METAR 2021/05/07 01:00 UTC NOAA

Cotonou, Benin (DBBB) 06-21N 002-23E 9M
May 06, 2021 - 09:00 PM EDT / 2021.05.07 0100 UTC
Wind: from the WSW (240 degrees) at 10 MPH (9 KT):0
Visibility: greater than 7 mile(s):0
Sky conditions: partly cloudy
Temperature: 82 F (28 C)
Dew Point: 77 F (25 C)
Relative Humidity: 83%
Pressure (altimeter): 29.88 in. Hg (1012 hPa)
ob: DBBB 070100Z 24009KT 9999 SCT012 28/25 Q1012 NOSIG
cycle: 1

Station Type Date Time Source
DBBB TAF 2021/05/06 18:18 UTC NOAA

TAF TAF DBBB 061700Z 0618/0724 23012KT 9999 SCT012
TEMPO 0618/0621 TS BKN012 FEW023CB PROB30 0621/0708 4000 TSRA BKN012 FEW023CB

Example: see airport list